Time;durP1;ratioP1;P1;durP2;ratioP2;P2;SDS_P1;SDS_P2;PMS_P1;PMS_P2;Temp;Humidity;BMP_temperature;BMP_pressure;BME280_temperature;BME280_humidity;BME280_pressure;Samples;Min_cycle;Max_cycle;Signal;HPM_P1;HPM_P2
2021/01/18 00:02:00;;;;;;;21.55;10.18;;;;;;;0.92;91.94;99487.84;4962506;28;20035;-71
2021/01/18 00:04:26;;;;;;;21.95;10.73;;;;;;;1.02;91.75;99504.78;4955408;28;20035;-71
2021/01/18 00:06:51;;;;;;;25.73;10.45;;;;;;;0.97;91.46;99484.78;4969427;28;20039;-71
2021/01/18 00:09:16;;;;;;;24.90;10.07;;;;;;;0.96;91.22;99486.63;4955766;28;20477;-70
2021/01/18 00:11:45;;;;;;;21.05;9.50;;;;;;;1.01;91.69;99502.22;4956105;28;20073;-71
2021/01/18 00:14:10;;;;;;;28.47;9.67;;;;;;;1.05;91.41;99496.53;4957941;28;20062;-72
2021/01/18 00:16:36;;;;;;;21.10;9.20;;;;;;;0.98;91.35;99483.84;4954349;28;20039;-72
2021/01/18 00:19:01;;;;;;;22.08;9.57;;;;;;;1.04;91.36;99488.66;4954063;29;20023;-71
2021/01/18 00:21:26;;;;;;;20.50;8.90;;;;;;;0.91;91.22;99475.50;4955261;28;20035;-71
2021/01/18 00:23:52;;;;;;;19.63;9.57;;;;;;;0.86;91.36;99467.91;4958286;28;20432;-73
2021/01/18 00:26:19;;;;;;;23.63;9.48;;;;;;;0.96;91.39;99489.28;4969099;28;20031;-71
2021/01/18 00:28:44;;;;;;;19.98;9.40;;;;;;;0.93;91.34;99468.22;4956463;28;20032;-71
2021/01/18 00:31:10;;;;;;;24.05;9.75;;;;;;;1.12;91.18;99496.03;4969914;28;20374;-73
2021/01/18 00:33:36;;;;;;;15.63;9.02;;;;;;;0.99;91.13;99485.53;4954459;28;20046;-70
2021/01/18 00:36:02;;;;;;;19.75;8.77;;;;;;;1.13;91.17;99495.03;4959134;28;20033;-69
2021/01/18 00:38:27;;;;;;;20.90;9.18;;;;;;;1.03;91.14;99490.47;4954622;28;20062;-71
2021/01/18 00:40:53;;;;;;;18.88;9.45;;;;;;;0.95;91.21;99486.75;4960315;28;20402;-71
2021/01/18 00:43:18;;;;;;;15.82;8.70;;;;;;;0.91;91.21;99482.63;4952941;28;20063;-71
2021/01/18 00:45:43;;;;;;;19.75;8.82;;;;;;;1.00;91.15;99496.06;4954674;28;20036;-70
2021/01/18 00:48:09;;;;;;;16.92;8.63;;;;;;;1.04;91.28;99496.66;4954787;28;20034;-71
2021/01/18 00:50:35;;;;;;;21.30;8.68;;;;;;;1.11;90.86;99503.19;4969476;28;20104;-71
2021/01/18 00:53:01;;;;;;;25.02;10.10;;;;;;;1.07;90.75;99491.94;4963841;28;20031;-71
2021/01/18 00:55:27;;;;;;;17.42;9.07;;;;;;;1.09;90.95;99494.44;4955718;28;20038;-71
2021/01/18 00:57:53;;;;;;;21.42;9.60;;;;;;;1.08;90.87;99482.97;4955315;28;20481;-71
2021/01/18 01:00:21;;;;;;;22.65;9.52;;;;;;;1.07;91.15;99502.59;4955196;28;20046;-71
2021/01/18 01:02:48;;;;;;;23.30;9.13;;;;;;;1.02;91.50;99487.94;4953983;28;20405;-71
2021/01/18 01:05:16;;;;;;;19.05;9.68;;;;;;;0.99;91.10;99494.34;4953934;28;20087;-69
2021/01/18 01:07:44;;;;;;;18.40;9.77;;;;;;;1.08;91.49;99493.63;4957289;28;20031;-71
2021/01/18 01:10:12;;;;;;;20.65;10.20;;;;;;;1.00;90.83;99479.25;4951780;28;20050;-72
2021/01/18 01:12:37;;;;;;;22.20;9.77;;;;;;;0.97;91.43;99484.78;4953009;28;20031;-72
2021/01/18 01:15:11;;;;;;;25.75;10.32;;;;;;;0.92;91.41;99486.97;4968833;28;20034;-71
2021/01/18 01:17:43;;;;;;;30.45;10.82;;;;;;;0.98;91.33;99487.34;4969267;28;20028;-71
2021/01/18 01:20:13;;;;;;;21.60;9.63;;;;;;;1.04;91.21;99494.81;4954877;28;20038;-71
2021/01/18 01:22:39;;;;;;;24.67;10.55;;;;;;;0.98;91.13;99490.00;4953839;28;20087;-70
2021/01/18 01:25:13;;;;;;;21.85;9.65;;;;;;;1.07;91.68;99499.94;4953772;28;20023;-70
2021/01/18 01:27:39;;;;;;;23.98;10.52;;;;;;;1.08;91.32;99496.28;4953186;28;20045;-70
2021/01/18 01:30:10;;;;;;;27.45;11.48;;;;;;;1.05;91.42;99506.34;4954154;28;20030;-69
2021/01/18 01:32:40;;;;;;;30.00;11.75;;;;;;;1.08;91.19;99506.94;4958460;28;20458;-70
2021/01/18 01:35:07;;;;;;;27.98;11.68;;;;;;;1.04;91.09;99492.16;4957406;28;20541;-70
2021/01/18 01:37:33;;;;;;;27.05;11.52;;;;;;;0.94;91.45;99498.38;4977519;28;20491;-70
2021/01/18 01:39:58;;;;;;;23.63;11.93;;;;;;;1.02;91.07;99494.13;4957553;28;20042;-70
2021/01/18 01:42:24;;;;;;;29.52;10.80;;;;;;;1.02;91.59;99511.91;4966841;28;20042;-72
2021/01/18 01:44:51;;;;;;;30.75;11.05;;;;;;;1.04;91.47;99508.16;4952216;29;20027;-70
2021/01/18 01:47:31;;;;;;;23.73;11.27;;;;;;;1.09;90.95;99507.78;4953897;28;20098;-70
2021/01/18 01:49:59;;;;;;;22.88;10.00;;;;;;;1.08;91.28;99511.44;4954212;28;20039;-70
2021/01/18 01:52:28;;;;;;;22.63;10.13;;;;;;;1.04;91.38;99516.13;4954085;28;20027;-70
2021/01/18 01:54:57;;;;;;;20.77;10.47;;;;;;;1.01;91.43;99508.41;4953591;28;20063;-69
2021/01/18 01:57:23;;;;;;;26.25;11.27;;;;;;;1.01;91.57;99500.41;4968488;28;20267;-70
2021/01/18 01:59:49;;;;;;;26.65;10.90;;;;;;;1.16;91.17;99510.81;4951751;28;20062;-70
2021/01/18 02:02:14;;;;;;;30.48;11.68;;;;;;;1.03;91.62;99513.63;4957700;28;20106;-70
2021/01/18 02:04:40;;;;;;;31.10;10.35;;;;;;;1.09;91.35;99511.28;4963902;28;20110;-70
2021/01/18 02:07:28;;;;;;;24.52;10.23;;;;;;;1.13;91.33;99516.34;4952756;28;20448;-69
2021/01/18 02:09:56;;;;;;;36.53;10.63;;;;;;;1.09;91.46;99511.28;4968552;28;20404;-70
2021/01/18 02:12:24;;;;;;;28.70;10.38;;;;;;;1.09;91.11;99513.09;4953418;28;20113;-70
2021/01/18 02:14:58;;;;;;;24.00;10.45;;;;;;;1.15;90.90;99514.41;4953440;28;20452;-69
2021/01/18 02:17:57;;;;;;;23.83;11.15;;;;;;;1.14;91.12;99532.22;4954205;28;20031;-69
2021/01/18 02:20:53;;;;;;;29.23;9.95;;;;;;;1.16;91.26;99521.47;4952735;28;20523;-70
2021/01/18 02:24:05;;;;;;;20.08;10.32;;;;;;;1.16;91.17;99522.31;4953412;28;20027;-70
2021/01/18 02:26:49;;;;;;;21.63;9.90;;;;;;;1.13;91.43;99529.69;4942520;28;20035;-70
2021/01/18 02:29:39;;;;;;;24.80;9.88;;;;;;;1.13;91.27;99533.22;4954886;28;20027;-70
2021/01/18 02:32:27;;;;;;;25.45;9.32;;;;;;;1.21;91.06;99529.94;4952235;28;20062;-70
2021/01/18 02:35:25;;;;;;;28.88;9.60;;;;;;;1.09;91.24;99523.75;4953239;28;20031;-69
2021/01/18 02:37:57;;;;;;;20.30;9.50;;;;;;;1.07;91.21;99520.38;4954507;28;20035;-70
2021/01/18 02:40:35;;;;;;;23.75;10.30;;;;;;;1.07;91.18;99523.91;4958853;28;20031;-70
2021/01/18 02:43:05;;;;;;;23.75;10.93;;;;;;;1.06;91.03;99527.53;4959778;28;20043;-70
2021/01/18 02:45:33;;;;;;;17.48;9.27;;;;;;;0.99;91.58;99520.16;4952793;28;20062;-70
2021/01/18 02:48:00;;;;;;;23.85;9.57;;;;;;;0.97;91.17;99514.09;4953929;28;20043;-70
2021/01/18 02:50:25;;;;;;;22.25;9.32;;;;;;;1.09;91.45;99523.75;4953107;28;20035;-70
2021/01/18 02:52:51;;;;;;;20.77;9.25;;;;;;;1.09;91.38;99526.44;4953573;28;20037;-69
2021/01/18 02:55:16;;;;;;;17.73;9.07;;;;;;;1.12;90.82;99536.00;4957057;28;20034;-70
2021/01/18 02:57:43;;;;;;;21.60;9.32;;;;;;;1.12;90.93;99536.00;4963076;28;20027;-70
2021/01/18 03:00:13;;;;;;;22.05;9.15;;;;;;;1.14;90.99;99534.06;4959540;28;20066;-70
2021/01/18 03:02:38;;;;;;;22.60;9.70;;;;;;;1.17;90.56;99533.81;4957342;28;20397;-70
2021/01/18 03:05:20;;;;;;;21.27;9.77;;;;;;;1.08;91.08;99540.75;4956981;28;20034;-70
2021/01/18 03:08:22;;;;;;;26.42;9.77;;;;;;;1.14;90.59;99540.22;4957842;28;20070;-70
2021/01/18 03:11:09;;;;;;;20.45;8.90;;;;;;;1.07;90.74;99542.56;4955966;28;20448;-70
2021/01/18 03:13:58;;;;;;;23.45;8.68;;;;;;;1.07;90.95;99542.56;4956265;28;20031;-70
2021/01/18 03:16:31;;;;;;;23.40;8.80;;;;;;;1.18;90.72;99536.34;4937212;29;20431;-69
2021/01/18 03:19:01;;;;;;;17.27;8.65;;;;;;;1.16;91.09;99548.13;4974650;28;20022;-69
2021/01/18 03:21:26;;;;;;;22.70;8.93;;;;;;;1.11;90.64;99535.16;4956203;28;20031;-70
2021/01/18 03:23:52;;;;;;;22.98;10.50;;;;;;;1.17;90.39;99549.78;4951045;28;20019;-70
2021/01/18 03:26:17;;;;;;;21.00;8.90;;;;;;;1.08;90.66;99551.41;4964455;28;20026;-70
2021/01/18 03:28:43;;;;;;;19.70;8.43;;;;;;;0.95;90.48;99516.91;4958042;28;20027;-70
2021/01/18 03:31:08;;;;;;;21.50;8.30;;;;;;;0.90;90.33;99527.09;4954959;28;20393;-70
2021/01/18 03:33:33;;;;;;;22.75;8.98;;;;;;;0.91;90.75;99539.41;4956217;28;20033;-70
2021/01/18 03:35:58;;;;;;;18.23;8.10;;;;;;;0.79;91.25;99530.63;4956490;28;20038;-70
2021/01/18 03:38:24;;;;;;;25.15;8.85;;;;;;;0.81;91.02;99539.34;4970602;28;20515;-70
2021/01/18 03:40:51;;;;;;;19.52;8.95;;;;;;;0.76;91.02;99538.00;4955887;28;20035;-70
2021/01/18 03:43:19;;;;;;;23.70;8.98;;;;;;;0.67;91.40;99541.41;4958337;28;20031;-70
2021/01/18 03:45:44;;;;;;;27.77;9.32;;;;;;;0.43;91.52;99529.91;4950966;29;20031;-69
2021/01/18 03:48:11;;;;;;;23.10;9.27;;;;;;;0.39;92.11;99543.56;4966428;28;20031;-70
2021/01/18 03:50:37;;;;;;;28.95;9.65;;;;;;;0.44;92.42;99541.41;4964236;28;20051;-69
2021/01/18 03:53:03;;;;;;;24.48;8.65;;;;;;;0.43;92.09;99523.75;4962720;28;20444;-70
2021/01/18 03:55:29;;;;;;;27.58;9.18;;;;;;;0.46;91.83;99538.63;5042065;23;20108;-70
2021/01/18 03:57:55;;;;;;;25.80;9.32;;;;;;;0.52;92.40;99552.28;5003386;28;20034;-73
2021/01/18 04:00:24;;;;;;;23.58;9.13;;;;;;;0.50;92.22;99550.72;5013518;28;20026;-71
2021/01/18 04:02:51;;;;;;;19.25;8.88;;;;;;;0.44;92.20;99541.41;5011019;28;20494;-71
2021/01/18 04:05:16;;;;;;;19.65;9.52;;;;;;;0.34;92.58;99538.63;5009366;28;20022;-71
2021/01/18 04:07:42;;;;;;;18.58;8.90;;;;;;;0.42;92.76;99543.34;5011112;28;20255;-69
2021/01/18 04:10:09;;;;;;;22.40;8.80;;;;;;;0.49;92.40;99549.03;5018844;28;20508;-69
2021/01/18 04:12:38;;;;;;;24.02;9.68;;;;;;;0.47;92.51;99540.31;5007740;28;20173;-69
2021/01/18 04:15:04;;;;;;;;;;;;;;;0.53;92.42;99550.50;4985463;28;20018;-69
2021/01/18 04:17:29;;;;;;;25.08;9.13;;;;;;;0.56;92.15;99543.09;4994586;28;20434;-69
2021/01/18 04:19:54;;;;;;;26.88;9.82;;;;;;;0.59;92.54;99545.50;4994084;28;20101;-69
2021/01/18 04:22:19;;;;;;;20.08;9.13;;;;;;;0.60;92.19;99552.56;4994488;28;20439;-69
2021/01/18 04:24:45;;;;;;;20.17;8.25;;;;;;;0.53;91.98;99546.00;4994120;28;20031;-70
2021/01/18 04:27:10;;;;;;;17.70;8.07;;;;;;;0.43;91.92;99540.56;4993644;28;20065;-69
2021/01/18 04:29:35;;;;;;;16.15;7.93;;;;;;;0.49;91.92;99549.88;4995054;28;20041;-73
2021/01/18 04:32:01;;;;;;;20.38;8.10;;;;;;;0.35;92.21;99540.31;4994035;28;20140;-73
2021/01/18 04:34:26;;;;;;;16.02;7.28;;;;;;;0.31;92.42;99549.50;4994029;28;20022;-73
2021/01/18 04:36:52;;;;;;;16.67;7.68;;;;;;;0.17;92.53;99539.09;4994002;28;20026;-73
2021/01/18 04:39:18;;;;;;;21.92;8.25;;;;;;;0.42;92.43;99552.19;4993611;28;20084;-73
2021/01/18 04:41:45;;;;;;;17.75;7.93;;;;;;;0.33;92.53;99562.69;4993375;28;20061;-73
2021/01/18 04:44:18;;;;;;;20.77;8.68;;;;;;;0.19;92.46;99526.50;4987413;28;20034;-73
2021/01/18 04:46:45;;;;;;;23.73;9.00;;;;;;;0.37;92.57;99558.84;4990346;28;20026;-73
2021/01/18 04:49:12;;;;;;;16.63;8.55;;;;;;;0.07;92.45;99516.81;4993372;28;20515;-71
2021/01/18 04:51:50;;;;;;;16.95;7.68;;;;;;;0.35;92.56;99560.75;4992597;28;20145;-73
2021/01/18 04:54:17;;;;;;;16.20;7.38;;;;;;;0.33;92.02;99570.69;4993905;28;20026;-73
2021/01/18 04:57:04;;;;;;;17.92;7.55;;;;;;;0.25;92.46;99565.09;4993707;28;20057;-73
2021/01/18 04:59:46;;;;;;;19.00;7.72;;;;;;;0.17;92.24;99560.38;5006150;28;20534;-71
2021/01/18 05:02:19;;;;;;;21.60;7.50;;;;;;;0.23;92.78;99562.56;4982811;28;20105;-68
2021/01/18 05:04:47;;;;;;;21.10;8.43;;;;;;;0.10;92.99;99554.66;4984881;28;20038;-72
2021/01/18 05:07:45;;;;;;;21.10;8.63;;;;;;;0.06;93.02;99555.88;4993045;28;20033;-74
2021/01/18 05:10:12;;;;;;;21.58;8.80;;;;;;;0.22;93.09;99564.38;4993704;28;20034;-75
2021/01/18 05:12:40;;;;;;;22.52;8.05;;;;;;;0.18;93.00;99552.28;4992841;28;20447;-74
2021/01/18 05:15:07;;;;;;;17.40;7.90;;;;;;;0.20;92.93;99542.34;4991384;28;20027;-73
2021/01/18 05:17:43;;;;;;;23.42;9.05;;;;;;;0.28;92.94;99567.53;4993224;28;20030;-72
2021/01/18 05:20:19;;;;;;;24.50;8.65;;;;;;;0.31;92.99;99565.47;4988834;28;20022;-75
2021/01/18 05:22:47;;;;;;;18.55;8.70;;;;;;;0.31;92.89;99567.28;4989117;28;20086;-74
2021/01/18 05:25:14;;;;;;;25.60;9.25;;;;;;;0.33;92.71;99565.34;4988817;28;20096;-75
2021/01/18 05:28:02;;;;;;;22.77;9.77;;;;;;;0.41;92.94;99563.78;4993231;28;20432;-76
2021/01/18 05:30:30;;;;;;;20.90;8.65;;;;;;;0.46;92.42;99562.59;4992373;28;20041;-76
2021/01/18 05:33:15;;;;;;;27.23;8.65;;;;;;;0.43;92.52;99569.00;5008140;28;20025;-78
2021/01/18 05:35:50;;;;;;;27.90;9.07;;;;;;;0.39;92.33;99572.84;4992359;28;20025;-72
2021/01/18 05:38:16;;;;;;;19.58;8.50;;;;;;;0.30;92.53;99562.94;4995623;28;20381;-70
2021/01/18 05:40:44;;;;;;;27.48;9.32;;;;;;;0.31;92.80;99576.09;4992089;28;20038;-75
2021/01/18 05:43:10;;;;;;;21.92;9.18;;;;;;;0.31;92.71;99576.09;4991837;28;20036;-76
2021/01/18 05:45:38;;;;;;;21.52;8.75;;;;;;;0.34;92.61;99577.69;4987602;28;20026;-74
2021/01/18 05:48:06;;;;;;;23.13;9.40;;;;;;;0.30;92.67;99576.25;4992400;28;20122;-75
2021/01/18 05:50:33;;;;;;;23.50;9.10;;;;;;;0.39;92.62;99586.16;4993926;28;20034;-72
2021/01/18 05:52:59;;;;;;;25.48;9.32;;;;;;;0.15;92.62;99564.97;4993390;28;20093;-74
2021/01/18 05:55:27;;;;;;;19.23;8.07;;;;;;;0.25;92.41;99581.06;4992186;28;20042;-75
2021/01/18 05:58:01;;;;;;;22.98;9.25;;;;;;;0.32;92.46;99600.94;4991869;28;20031;-73
2021/01/18 06:00:37;;;;;;;28.77;8.90;;;;;;;0.33;92.62;99602.63;4991075;28;20030;-74
2021/01/18 06:03:10;;;;;;;20.95;9.02;;;;;;;0.36;92.59;99602.38;4993599;28;20049;-75
2021/01/18 06:05:38;;;;;;;19.88;9.23;;;;;;;0.34;92.62;99591.88;4986204;28;20574;-74
2021/01/18 06:08:14;;;;;;;25.23;9.27;;;;;;;0.47;91.89;99614.84;4991819;28;20022;-78
2021/01/18 06:10:40;;;;;;;24.13;9.63;;;;;;;0.51;91.86;99614.50;4993512;28;20416;-81
2021/01/18 06:13:25;;;;;;;26.92;8.90;;;;;;;0.56;91.84;99608.81;4996300;28;20030;-80
2021/01/18 06:16:09;;;;;;;21.63;8.38;;;;;;;0.39;91.72;99588.81;5007612;28;20022;-78
2021/01/18 06:18:36;;;;;;;17.50;8.60;;;;;;;0.52;92.12;99618.84;4991582;28;20476;-80
2021/01/18 06:21:04;;;;;;;25.08;8.45;;;;;;;0.69;91.45;99628.19;4995730;28;20023;-80
2021/01/18 06:23:30;;;;;;;32.30;8.82;;;;;;;0.50;91.40;99599.50;4992796;28;20034;-73
2021/01/18 06:25:57;;;;;;;24.55;8.85;;;;;;;0.25;91.42;99559.78;5000545;28;20023;-73
2021/01/18 06:28:30;;;;;;;20.92;8.88;;;;;;;0.62;91.33;99630.47;4997330;28;20025;-81
2021/01/18 06:31:09;;;;;;;18.27;8.23;;;;;;;0.60;91.56;99627.09;4994474;28;20029;-75
2021/01/18 06:33:36;;;;;;;20.27;7.90;;;;;;;0.58;91.39;99623.72;4996385;28;20430;-72
2021/01/18 06:36:15;;;;;;;23.42;7.20;;;;;;;0.62;91.11;99633.13;4994591;28;20093;-78
2021/01/18 06:38:42;;;;;;;18.65;7.53;;;;;;;0.61;91.18;99626.13;4996847;28;20036;-78
2021/01/18 06:41:08;;;;;;;25.05;7.97;;;;;;;0.60;91.44;99635.09;4996636;28;20033;-79
2021/01/18 06:43:35;;;;;;;19.38;8.02;;;;;;;0.69;91.42;99646.00;4996957;28;20117;-74
2021/01/18 06:46:14;;;;;;;22.77;8.82;;;;;;;0.70;91.09;99637.03;4995851;28;20030;-79
2021/01/18 06:48:45;;;;;;;21.55;8.07;;;;;;;0.67;91.18;99634.59;4995510;28;20022;-79
2021/01/18 06:51:14;;;;;;;21.70;8.50;;;;;;;0.71;91.18;99649.38;4996115;28;20061;-76
2021/01/18 06:53:42;;;;;;;16.65;7.78;;;;;;;0.74;91.05;99649.16;5004860;28;20506;-75
2021/01/18 06:56:11;;;;;;;21.98;8.07;;;;;;;0.76;90.80;99652.50;4996277;28;20084;-80
2021/01/18 06:58:45;;;;;;;25.65;8.77;;;;;;;0.68;91.38;99657.59;4995030;28;20041;-73
2021/01/18 07:01:14;;;;;;;22.65;8.90;;;;;;;0.65;91.18;99646.25;4996689;28;20034;-73
2021/01/18 07:03:41;;;;;;;19.65;7.85;;;;;;;0.75;90.94;99662.31;4997120;28;20034;-72
2021/01/18 07:06:30;;;;;;;19.70;8.32;;;;;;;0.75;90.91;99661.47;4994884;28;20045;-76
2021/01/18 07:08:58;;;;;;;17.60;7.95;;;;;;;0.73;90.96;99663.41;5004686;28;20022;-75
2021/01/18 07:11:24;;;;;;;22.55;8.63;;;;;;;0.76;90.96;99660.50;5019834;28;20018;-78
2021/01/18 07:13:50;;;;;;;22.58;8.90;;;;;;;0.69;90.93;99646.00;4997193;28;20018;-77
2021/01/18 07:16:18;;;;;;;16.92;7.85;;;;;;;0.86;90.76;99674.81;4998790;28;20442;-71
2021/01/18 07:18:55;;;;;;;14.40;6.93;;;;;;;0.69;90.80;99656.66;5018312;28;20022;-73
2021/01/18 07:21:21;;;;;;;24.48;7.85;;;;;;;0.77;90.46;99673.72;5010037;28;20036;-73
2021/01/18 07:23:53;;;;;;;22.77;7.63;;;;;;;0.87;90.57;99681.84;5019439;28;20113;-68
2021/01/18 07:29:03;;;;;;;24.45;8.18;;;;;;;0.75;90.92;99677.47;5084997;23;20050;-75
2021/01/18 07:31:29;;;;;;;28.27;8.23;;;;;;;0.79;90.57;99662.97;5036951;28;20049;-79
2021/01/18 07:33:56;;;;;;;17.73;7.82;;;;;;;0.93;90.91;99677.84;5014698;28;20021;-71
2021/01/18 07:36:26;;;;;;;22.15;7.72;;;;;;;1.01;90.63;99683.41;5024991;28;20033;-76
2021/01/18 07:38:52;;;;;;;26.38;8.40;;;;;;;0.95;89.55;99679.44;5023256;28;20041;-72
2021/01/18 07:41:20;;;;;;;16.15;6.88;;;;;;;1.05;89.67;99675.06;5035511;28;20022;-71
2021/01/18 07:43:48;;;;;;;20.70;7.13;;;;;;;1.11;89.27;99676.41;5021297;28;20078;-68
2021/01/18 07:46:25;;;;;;;17.20;6.47;;;;;;;1.20;89.13;99688.97;5027951;28;20093;-68
2021/01/18 07:48:51;;;;;;;17.48;7.20;;;;;;;1.29;89.30;99687.41;5008830;28;20113;-69
2021/01/18 07:51:20;;;;;;;16.55;7.30;;;;;;;1.18;88.86;99679.41;4997024;28;20054;-67
2021/01/18 07:53:46;;;;;;;19.15;6.70;;;;;;;1.24;88.61;99689.59;4997136;28;20064;-72
2021/01/18 07:56:11;;;;;;;18.42;7.50;;;;;;;1.19;88.53;99689.13;4997768;28;20015;-73
2021/01/18 07:58:38;;;;;;;18.58;6.63;;;;;;;1.31;88.58;99694.31;4995009;28;20037;-67
2021/01/18 08:01:08;;;;;;;20.60;7.70;;;;;;;1.27;88.69;99700.00;4995363;28;20022;-66
2021/01/18 08:03:33;;;;;;;;;;;;;;;1.47;88.43;99701.09;5013890;28;20065;-66
2021/01/18 08:06:09;;;;;;;22.73;7.53;;;;;;;1.32;87.89;99692.50;5008289;28;19956;-66
2021/01/18 08:08:35;;;;;;;23.70;6.43;;;;;;;1.44;87.93;99704.00;4995925;28;20017;-67
2021/01/18 08:11:17;;;;;;;20.10;7.70;;;;;;;1.43;88.30;99704.97;5007097;28;20113;-66
2021/01/18 08:13:49;;;;;;;15.02;6.95;;;;;;;1.44;87.91;99709.31;5007755;28;20022;-66
2021/01/18 08:16:22;;;;;;;18.73;6.82;;;;;;;1.45;88.11;99709.22;5005765;28;20048;-73
2021/01/18 08:19:07;;;;;;;14.82;6.78;;;;;;;1.39;88.36;99712.38;5014150;28;20061;-75
2021/01/18 08:21:33;;;;;;;15.52;6.13;;;;;;;1.44;87.93;99709.31;5005016;28;20053;-72
2021/01/18 08:24:23;;;;;;;20.80;7.13;;;;;;;1.46;88.02;99710.06;5011039;28;20022;-78
2021/01/18 08:27:05;;;;;;;17.38;6.30;;;;;;;1.45;87.06;99709.22;5014188;28;20026;-73
2021/01/18 08:29:43;;;;;;;14.32;6.40;;;;;;;1.54;87.36;99716.44;5026449;28;20026;-74
2021/01/18 08:32:20;;;;;;;22.38;6.97;;;;;;;1.70;86.91;99720.56;5013896;28;20025;-73
2021/01/18 08:34:50;;;;;;;18.90;7.18;;;;;;;1.57;87.58;99706.53;5018290;28;20034;-73
2021/01/18 08:37:16;;;;;;;19.23;7.50;;;;;;;1.63;86.59;99700.72;5020289;28;20041;-73
2021/01/18 08:39:53;;;;;;;19.40;7.95;;;;;;;1.80;86.00;99715.34;5014032;28;20030;-79
2021/01/18 08:42:40;;;;;;;17.02;7.75;;;;;;;1.82;86.67;99713.38;5011366;28;20026;-75
2021/01/18 08:45:39;;;;;;;14.18;7.88;;;;;;;1.93;86.19;99716.88;5000205;28;20078;-73
2021/01/18 08:48:06;;;;;;;25.92;7.68;;;;;;;2.02;86.00;99709.94;5011585;28;20026;-75
2021/01/18 08:50:48;;;;;;;20.65;7.18;;;;;;;2.30;85.30;99705.81;5012802;28;20407;-78
2021/01/18 08:53:34;;;;;;;21.42;7.70;;;;;;;2.31;84.35;99712.84;5011260;28;20030;-72
2021/01/18 08:56:04;;;;;;;13.90;7.22;;;;;;;2.30;84.44;99705.81;5011179;28;20053;-74
2021/01/18 08:58:34;;;;;;;17.92;6.65;;;;;;;2.33;83.74;99710.91;5011255;28;20108;-77
2021/01/18 09:00:59;;;;;;;;;;;;;;;2.27;84.28;99711.41;5006056;28;20033;-74
2021/01/18 09:03:25;;;;;;;20.52;7.35;;;;;;;2.36;84.24;99710.66;5012212;28;19916;-71
2021/01/18 09:05:58;;;;;;;14.20;7.43;;;;;;;2.37;83.95;99704.31;5007515;28;20071;-78
2021/01/18 09:08:25;;;;;;;18.48;7.20;;;;;;;2.49;83.14;99714.94;4999956;28;20113;-77
2021/01/18 09:11:12;;;;;;;15.68;7.10;;;;;;;2.52;84.51;99726.22;5011404;28;20141;-75
2021/01/18 09:13:39;;;;;;;17.83;7.75;;;;;;;2.44;84.01;99728.69;5005299;28;20019;-77
2021/01/18 09:16:09;;;;;;;18.35;7.43;;;;;;;2.18;85.08;99707.69;5011228;28;20017;-75
2021/01/18 09:18:36;;;;;;;17.55;6.70;;;;;;;2.32;84.72;99709.19;5012622;28;20026;-74
2021/01/18 09:21:05;;;;;;;19.67;6.10;;;;;;;2.64;84.15;99727.00;5010933;28;20026;-75
2021/01/18 09:23:31;;;;;;;17.20;5.80;;;;;;;2.53;84.25;99716.38;5007432;28;20077;-77
2021/01/18 09:25:59;;;;;;;12.25;6.55;;;;;;;2.22;84.53;99718.94;5005324;28;20034;-77
2021/01/18 09:28:24;;;;;;;19.02;6.88;;;;;;;2.45;84.50;99733.06;5000264;28;20049;-74
2021/01/18 09:30:49;;;;;;;11.93;6.18;;;;;;;2.51;83.83;99723.69;5011557;28;20060;-77
2021/01/18 09:33:14;;;;;;;10.77;5.85;;;;;;;2.77;83.03;99716.97;5008221;28;20088;-76
2021/01/18 09:35:42;;;;;;;16.88;6.00;;;;;;;2.60;83.41;99722.91;5011687;28;20042;-75
2021/01/18 09:38:09;;;;;;;13.52;5.65;;;;;;;2.67;82.83;99716.06;5012781;28;20349;-73
2021/01/18 09:40:37;;;;;;;13.32;6.03;;;;;;;2.97;83.08;99730.47;4998533;28;20026;-77
2021/01/18 09:43:03;;;;;;;12.73;5.47;;;;;;;2.69;82.68;99724.78;5000564;28;20480;-74
2021/01/18 09:45:30;;;;;;;13.73;5.85;;;;;;;2.44;83.99;99730.50;5009811;28;20522;-71
2021/01/18 09:48:03;;;;;;;13.93;5.72;;;;;;;2.68;83.39;99716.94;5012646;28;20038;-78
2021/01/18 09:50:28;;;;;;;13.30;5.97;;;;;;;2.76;82.91;99731.31;5011194;28;20029;-69
2021/01/18 09:52:54;;;;;;;10.98;5.15;;;;;;;2.78;83.11;99728.53;5013231;28;20033;-73
2021/01/18 09:55:36;;;;;;;12.60;5.80;;;;;;;2.89;83.53;99722.25;5005002;28;20026;-65
2021/01/18 09:58:39;;;;;;;18.10;6.15;;;;;;;2.41;84.13;99713.78;5014989;28;20026;-68
2021/01/18 10:01:11;;;;;;;10.00;4.90;;;;;;;2.47;84.29;99714.25;5021743;28;20124;-77
2021/01/18 10:03:38;;;;;;;13.05;6.35;;;;;;;2.38;84.85;99708.72;5011055;28;20025;-76
2021/01/18 10:06:09;;;;;;;11.82;5.60;;;;;;;2.25;84.71;99707.16;5021092;28;20022;-81
2021/01/18 10:08:36;;;;;;;9.05;5.10;;;;;;;2.37;84.43;99698.13;5000435;28;20396;-76
2021/01/18 10:11:03;;;;;;;11.63;5.32;;;;;;;2.39;83.98;99693.53;5004002;28;20480;-68
2021/01/18 10:13:28;;;;;;;20.52;6.25;;;;;;;2.37;84.54;99707.00;5006716;28;20039;-75
2021/01/18 10:15:54;;;;;;;21.13;6.32;;;;;;;2.34;84.42;99701.06;5008961;28;20026;-70
2021/01/18 10:18:29;;;;;;;12.57;5.13;;;;;;;2.48;84.18;99708.75;5004583;28;20037;-72
2021/01/18 10:20:55;;;;;;;12.13;5.78;;;;;;;2.22;84.92;99700.25;5005888;28;20057;-69
2021/01/18 10:23:21;;;;;;;11.68;6.32;;;;;;;2.40;84.57;99695.22;4998744;28;20037;-70
2021/01/18 10:25:46;;;;;;;13.60;5.95;;;;;;;2.50;84.60;99703.28;5007301;28;20030;-70
2021/01/18 10:28:18;;;;;;;13.13;5.82;;;;;;;2.59;83.63;99690.03;5007979;28;20083;-75
2021/01/18 10:30:44;;;;;;;15.05;5.88;;;;;;;2.73;83.46;99701.34;5008934;28;20022;-71
2021/01/18 10:33:16;;;;;;;10.88;5.65;;;;;;;2.68;83.94;99687.53;5003982;28;20041;-79
2021/01/18 10:35:41;;;;;;;12.50;5.57;;;;;;;3.03;82.07;99679.13;5007030;28;20018;-77
2021/01/18 10:38:11;;;;;;;12.93;6.28;;;;;;;3.13;82.70;99696.06;5014721;28;20554;-75
2021/01/18 10:40:36;;;;;;;9.82;5.50;;;;;;;3.43;80.72;99687.19;5010564;28;20034;-71
2021/01/18 10:43:03;;;;;;;12.30;5.93;;;;;;;3.60;81.07;99687.50;5008557;28;20030;-73
2021/01/18 10:45:29;;;;;;;10.57;5.88;;;;;;;3.51;80.31;99691.84;5014622;28;20103;-74
2021/01/18 10:47:59;;;;;;;12.95;5.53;;;;;;;3.55;80.14;99685.25;5008361;28;20064;-72
2021/01/18 10:50:29;;;;;;;9.18;5.28;;;;;;;3.41;80.78;99690.97;4999901;28;20484;-76
2021/01/18 10:53:00;;;;;;;12.18;6.03;;;;;;;3.06;81.94;99697.56;5013053;28;20041;-75
2021/01/18 10:55:26;;;;;;;13.48;5.57;;;;;;;3.23;80.90;99683.59;5005555;28;20068;-75
2021/01/18 10:57:52;;;;;;;13.93;5.55;;;;;;;3.12;81.95;99702.41;5012439;28;20578;-73
2021/01/18 11:00:29;;;;;;;11.93;5.40;;;;;;;3.28;81.73;99693.88;5014994;28;20036;-78
2021/01/18 11:02:57;;;;;;;11.48;4.82;;;;;;;3.05;81.79;99706.59;5013689;28;20037;-70
2021/01/18 11:05:33;;;;;;;12.30;4.53;;;;;;;3.00;82.31;99715.00;5009238;28;20105;-72
2021/01/18 11:08:02;;;;;;;8.07;4.90;;;;;;;2.96;82.19;99718.94;5012829;28;20439;-68
2021/01/18 11:10:31;;;;;;;10.00;5.20;;;;;;;2.82;82.76;99706.72;5003548;28;20049;-68
2021/01/18 11:12:59;;;;;;;11.77;4.70;;;;;;;2.69;82.49;99703.41;5001182;28;20030;-68
2021/01/18 11:15:29;;;;;;;10.38;4.63;;;;;;;2.87;82.87;99708.19;5013490;28;20021;-72
2021/01/18 11:17:55;;;;;;;10.45;5.07;;;;;;;2.98;82.46;99700.91;5006480;28;20457;-72
2021/01/18 11:20:26;;;;;;;13.15;5.18;;;;;;;2.48;83.46;99689.22;5002899;28;20057;-68
2021/01/18 11:22:51;;;;;;;17.58;5.00;;;;;;;2.89;82.32;99685.69;5008731;28;20030;-71
2021/01/18 11:25:16;;;;;;;10.45;5.00;;;;;;;2.91;83.01;99689.06;5012883;28;20121;-71
2021/01/18 11:27:42;;;;;;;9.25;4.93;;;;;;;3.13;81.84;99665.81;5007393;28;20470;-71
2021/01/18 11:30:07;;;;;;;13.98;4.55;;;;;;;3.10;81.34;99677.63;4995446;28;20038;-72
2021/01/18 11:32:33;;;;;;;10.90;4.40;;;;;;;3.04;82.13;99656.78;5004817;28;20034;-71
2021/01/18 11:34:58;;;;;;;10.63;3.85;;;;;;;2.90;82.14;99675.84;5007745;28;20030;-71
2021/01/18 11:37:23;;;;;;;11.45;4.20;;;;;;;3.01;81.61;99671.25;5003656;28;20079;-71
2021/01/18 11:39:49;;;;;;;9.15;4.00;;;;;;;2.98;81.42;99673.34;5008761;28;20487;-71
2021/01/18 11:42:14;;;;;;;9.60;3.80;;;;;;;2.88;81.78;99659.91;5005389;28;20085;-71
2021/01/18 11:44:39;;;;;;;9.90;4.10;;;;;;;3.05;81.50;99655.78;5016513;28;20499;-72
2021/01/18 11:47:05;;;;;;;8.15;3.60;;;;;;;2.99;81.83;99659.84;4993860;28;20559;-72
2021/01/18 11:49:30;;;;;;;10.25;3.50;;;;;;;2.73;82.53;99661.28;5020501;28;20058;-71
2021/01/18 11:51:57;;;;;;;8.90;4.10;;;;;;;2.83;81.87;99655.00;5013653;28;20034;-79